Time;durP1;ratioP1;P1;durP2;ratioP2;P2;SDS_P1;SDS_P2;PMS_P1;PMS_P2;Temp;Humidity;BMP_temperature;BMP_pressure;BME280_temperature;BME280_humidity;BME280_pressure;Samples;Min_cycle;Max_cycle;Signal;HPM_P1;HPM_P2
2022/09/21 04:01:32;;;;;;;9.48;0.85;;;6.50;99.90;;;;;;5470013;23;20233;-71
2022/09/21 04:03:58;;;;;;;1.83;1.73;;;6.40;99.90;;;;;;4985380;28;20217;-68
2022/09/21 04:06:25;;;;;;;1.10;1.10;;;6.40;99.90;;;;;;4983260;28;20201;-69
2022/09/21 04:08:53;;;;;;;1.40;1.30;;;6.40;99.90;;;;;;4978826;28;20221;-69
2022/09/21 04:11:21;;;;;;;2.90;2.08;;;6.40;99.90;;;;;;4980456;28;20613;-69
2022/09/21 04:13:50;;;;;;;1.00;1.00;;;6.40;99.90;;;;;;4969313;28;20200;-69
2022/09/21 04:16:17;;;;;;;0.90;0.90;;;6.40;99.90;;;;;;4973429;28;20209;-69
2022/09/21 04:18:49;;;;;;;4.07;1.30;;;6.40;99.90;;;;;;4974476;28;20689;-69
2022/09/21 04:21:16;;;;;;;2.15;1.95;;;6.30;99.90;;;;;;4968718;28;20230;-69
2022/09/21 04:23:42;;;;;;;1.00;1.00;;;6.30;99.90;;;;;;4976040;28;20237;-70
2022/09/21 04:26:20;;;;;;;0.85;0.85;;;6.30;99.90;;;;;;4977856;28;20589;-70
2022/09/21 04:28:46;;;;;;;1.63;1.23;;;6.30;99.90;;;;;;4977264;28;20216;-70
2022/09/21 04:31:13;;;;;;;1.50;1.50;;;6.30;99.90;;;;;;4971962;28;20229;-69
2022/09/21 04:33:40;;;;;;;1.10;1.10;;;6.30;99.90;;;;;;4967725;28;20197;-70
2022/09/21 04:36:08;;;;;;;0.82;0.82;;;6.30;99.90;;;;;;4981899;28;20201;-70
2022/09/21 04:38:35;;;;;;;2.03;1.88;;;6.30;99.90;;;;;;4975767;28;20209;-70
2022/09/21 04:41:02;;;;;;;6.55;1.63;;;6.30;99.90;;;;;;4983559;28;20234;-70
2022/09/21 04:43:29;;;;;;;1.20;1.02;;;6.20;99.90;;;;;;4976028;28;20264;-70
2022/09/21 04:45:55;;;;;;;3.83;1.88;;;6.20;99.90;;;;;;4977351;28;20217;-69
2022/09/21 04:48:22;;;;;;;1.38;1.38;;;6.20;99.90;;;;;;4976191;28;20225;-69
2022/09/21 04:50:49;;;;;;;2.13;1.75;;;6.20;99.90;;;;;;4967588;28;20591;-70
2022/09/21 04:53:17;;;;;;;3.95;1.77;;;6.20;99.90;;;;;;4972474;28;20578;-70
2022/09/21 04:55:45;;;;;;;5.88;1.90;;;6.20;99.90;;;;;;4965314;28;20240;-69
2022/09/21 04:58:12;;;;;;;1.20;1.20;;;6.20;99.90;;;;;;4980840;28;20274;-71
2022/09/21 05:00:38;;;;;;;1.10;1.10;;;6.20;99.90;;;;;;4969464;28;20240;-71
2022/09/21 05:03:05;;;;;;;1.60;1.60;;;6.20;99.90;;;;;;4973551;28;20588;-70
2022/09/21 05:05:32;;;;;;;1.52;1.52;;;6.20;99.90;;;;;;4969430;28;20209;-70
2022/09/21 05:07:58;;;;;;;1.15;1.15;;;6.20;99.90;;;;;;4973836;28;20295;-71
2022/09/21 05:10:26;;;;;;;2.20;2.00;;;6.20;99.90;;;;;;4966140;28;20209;-70
2022/09/21 05:12:52;;;;;;;8.27;1.15;;;6.20;99.90;;;;;;4973408;28;20236;-69
2022/09/21 05:15:20;;;;;;;1.77;1.67;;;6.20;99.90;;;;;;4978939;28;20217;-71
2022/09/21 05:17:47;;;;;;;1.88;1.23;;;6.20;99.90;;;;;;4973005;28;20214;-71
2022/09/21 05:20:14;;;;;;;1.48;1.48;;;6.20;99.90;;;;;;4967905;28;20293;-69
2022/09/21 05:22:40;;;;;;;1.30;1.30;;;6.30;99.90;;;;;;4975133;28;20312;-71
2022/09/21 05:25:09;;;;;;;1.30;1.30;;;6.20;99.90;;;;;;4975286;28;20553;-71
2022/09/21 05:27:37;;;;;;;1.63;1.63;;;6.30;99.90;;;;;;4966739;28;20213;-70
2022/09/21 05:30:05;;;;;;;2.63;2.42;;;6.30;99.90;;;;;;4972274;28;20220;-71
2022/09/21 05:32:42;;;;;;;2.03;1.92;;;6.30;99.90;;;;;;4972014;28;20228;-71
2022/09/21 05:35:18;;;;;;;1.60;1.60;;;6.30;99.90;;;;;;4974931;28;20225;-72
2022/09/21 05:37:51;;;;;;;3.90;2.03;;;6.30;99.90;;;;;;4970263;28;20226;-70
2022/09/21 05:40:18;;;;;;;2.92;1.88;;;6.30;99.90;;;;;;4959206;28;20558;-69
2022/09/21 05:42:47;;;;;;;4.45;1.52;;;6.40;99.90;;;;;;4962640;28;20888;-70
2022/09/21 05:45:16;;;;;;;1.77;1.77;;;6.40;99.90;;;;;;4966061;28;20205;-70
2022/09/21 05:47:56;;;;;;;2.40;2.30;;;6.40;99.90;;;;;;4970015;28;20237;-70
2022/09/21 05:50:33;;;;;;;1.20;1.20;;;6.40;99.90;;;;;;4969269;28;20297;-70
2022/09/21 05:53:06;;;;;;;2.17;2.08;;;6.50;99.90;;;;;;4970108;28;20210;-70
2022/09/21 05:55:45;;;;;;;1.73;1.63;;;6.50;99.90;;;;;;4974861;28;20302;-70
2022/09/21 05:58:24;;;;;;;1.45;1.42;;;6.60;99.90;;;;;;4966883;28;20217;-70
2022/09/21 06:00:59;;;;;;;2.90;2.70;;;6.60;99.90;;;;;;4968336;28;20236;-70
2022/09/21 06:03:29;;;;;;;4.65;4.35;;;6.60;99.90;;;;;;4966790;28;20255;-69
2022/09/21 06:05:55;;;;;;;3.25;3.15;;;6.70;99.90;;;;;;4962632;28;20209;-69
2022/09/21 06:08:22;;;;;;;2.70;2.60;;;6.70;99.90;;;;;;4963064;28;20215;-70
2022/09/21 06:10:49;;;;;;;3.85;3.55;;;6.80;99.90;;;;;;4974128;28;20259;-70
2022/09/21 06:13:18;;;;;;;3.90;3.70;;;6.80;99.90;;;;;;4975793;28;20212;-69
2022/09/21 06:15:44;;;;;;;5.10;3.50;;;6.80;99.90;;;;;;4968733;28;20221;-69
2022/09/21 06:18:11;;;;;;;3.60;3.38;;;6.90;99.90;;;;;;4969846;28;20212;-70
2022/09/21 06:20:38;;;;;;;3.58;3.33;;;6.90;99.90;;;;;;4972214;28;20249;-69
2022/09/21 06:23:07;;;;;;;2.72;2.63;;;7.00;99.90;;;;;;4972232;28;20249;-67
2022/09/21 06:25:34;;;;;;;4.82;4.30;;;7.10;99.90;;;;;;4961012;28;20206;-68
2022/09/21 06:28:04;;;;;;;2.85;2.75;;;7.10;99.90;;;;;;4957664;28;20205;-69
2022/09/21 06:30:33;;;;;;;3.42;3.05;;;7.20;99.90;;;;;;4962021;28;20241;-70
2022/09/21 06:33:01;;;;;;;2.42;2.33;;;7.20;99.90;;;;;;4968747;28;20213;-69
2022/09/21 06:35:28;;;;;;;3.38;2.05;;;7.30;99.90;;;;;;4965888;28;20210;-71
2022/09/21 06:37:58;;;;;;;2.25;2.15;;;7.40;99.90;;;;;;4966359;28;20211;-68
2022/09/21 06:40:25;;;;;;;1.85;1.77;;;7.40;99.90;;;;;;4966714;28;20206;-70
2022/09/21 06:42:56;;;;;;;2.22;2.13;;;7.50;99.90;;;;;;4969572;28;20445;-70
2022/09/21 06:45:22;;;;;;;2.78;2.67;;;7.50;99.90;;;;;;4971774;28;20272;-71
2022/09/21 06:47:50;;;;;;;1.33;1.33;;;7.60;99.90;;;;;;4968625;28;20229;-70
2022/09/21 06:50:17;;;;;;;2.22;2.13;;;7.70;99.90;;;;;;4970465;28;20298;-70
2022/09/21 06:52:44;;;;;;;3.05;2.45;;;7.70;99.90;;;;;;4968719;28;20741;-70
2022/09/21 06:55:11;;;;;;;3.00;2.67;;;7.80;99.90;;;;;;4963280;28;20333;-70
2022/09/21 06:57:38;;;;;;;3.33;3.08;;;7.90;99.90;;;;;;4968999;28;20589;-70
2022/09/21 07:00:08;;;;;;;5.40;2.47;;;8.00;99.90;;;;;;4964940;28;20213;-72
2022/09/21 07:02:35;;;;;;;2.55;2.45;;;8.00;99.90;;;;;;4961597;28;20241;-70
2022/09/21 07:05:04;;;;;;;2.60;2.08;;;8.10;99.90;;;;;;4967187;28;20609;-70
2022/09/21 07:07:30;;;;;;;1.70;1.60;;;8.20;99.90;;;;;;4961203;28;20211;-70
2022/09/21 07:09:59;;;;;;;2.15;1.80;;;8.20;99.90;;;;;;4972871;28;20211;-70
2022/09/21 07:12:27;;;;;;;3.80;3.45;;;8.30;99.90;;;;;;4958329;28;20234;-68
2022/09/21 07:14:54;;;;;;;2.60;2.40;;;8.40;99.90;;;;;;4970995;28;20214;-69
2022/09/21 07:17:20;;;;;;;3.10;2.28;;;8.50;99.90;;;;;;4964178;28;20211;-70
2022/09/21 07:19:48;;;;;;;2.80;2.40;;;8.60;99.90;;;;;;4970564;28;20218;-70
2022/09/21 07:22:16;;;;;;;2.78;2.58;;;8.70;99.90;;;;;;4972340;28;20254;-70
2022/09/21 07:24:43;;;;;;;7.35;2.28;;;8.80;99.90;;;;;;4974621;28;20602;-71
2022/09/21 07:27:10;;;;;;;2.83;2.72;;;9.00;99.90;;;;;;4965638;28;20559;-71
2022/09/21 07:29:37;;;;;;;2.70;2.50;;;9.10;99.90;;;;;;4965094;28;20213;-72
2022/09/21 07:32:04;;;;;;;2.80;2.60;;;9.20;99.90;;;;;;4973419;28;20235;-70
2022/09/21 07:34:35;;;;;;;3.55;3.28;;;9.30;99.90;;;;;;4973540;28;20200;-70
2022/09/21 07:37:02;;;;;;;2.97;2.85;;;9.40;99.90;;;;;;4973561;28;20215;-70
2022/09/21 07:39:30;;;;;;;2.80;2.75;;;9.50;99.90;;;;;;4967506;28;20218;-70
2022/09/21 07:41:58;;;;;;;2.95;2.85;;;9.50;99.90;;;;;;4964714;28;20248;-70
2022/09/21 07:44:25;;;;;;;2.95;2.65;;;9.60;99.90;;;;;;4965083;28;20277;-70
2022/09/21 07:46:52;;;;;;;3.55;2.90;;;9.70;99.90;;;;;;4973059;28;20250;-70
2022/09/21 07:49:19;;;;;;;3.17;2.90;;;9.80;99.90;;;;;;4973335;28;20289;-70
2022/09/21 07:51:46;;;;;;;3.15;3.05;;;9.90;99.90;;;;;;4972091;28;20244;-70
2022/09/21 07:54:13;;;;;;;3.17;2.80;;;10.00;99.90;;;;;;4973018;28;20609;-70
2022/09/21 07:59:04;;;;;;;3.60;3.30;;;10.10;99.90;;;;;;4954287;28;20203;-70
2022/09/21 07:59:31;;;;;;;4.72;2.90;;;10.20;99.90;;;;;;4966581;28;20544;-70
2022/09/21 08:01:58;;;;;;;2.22;1.95;;;10.30;99.90;;;;;;4972920;28;20322;-70
2022/09/21 08:04:25;;;;;;;3.40;3.10;;;10.40;99.90;;;;;;4966780;28;20240;-69
2022/09/21 08:06:51;;;;;;;3.22;2.88;;;10.50;99.90;;;;;;4971045;28;20211;-69
2022/09/21 08:09:18;;;;;;;3.03;2.92;;;10.60;99.90;;;;;;4966033;28;20238;-69
2022/09/21 08:11:46;;;;;;;4.97;3.38;;;10.80;99.90;;;;;;4969571;28;20716;-69
2022/09/21 08:14:18;;;;;;;2.90;2.65;;;10.90;99.90;;;;;;4973120;28;20220;-69
2022/09/21 08:16:45;;;;;;;2.40;2.38;;;10.90;99.90;;;;;;4962383;28;20248;-69
2022/09/21 08:19:12;;;;;;;2.40;2.30;;;11.10;99.90;;;;;;4961437;28;20664;-70
2022/09/21 08:21:39;;;;;;;3.20;2.97;;;11.30;99.90;;;;;;4953471;29;20719;-70
2022/09/21 08:24:06;;;;;;;2.58;2.47;;;11.40;99.90;;;;;;4972560;28;20232;-72
2022/09/21 08:26:33;;;;;;;2.30;2.17;;;11.50;99.90;;;;;;4975860;28;20216;-70
2022/09/21 08:29:01;;;;;;;2.70;2.45;;;11.60;99.90;;;;;;4964248;28;20213;-72
2022/09/21 08:31:29;;;;;;;2.70;2.50;;;11.70;99.90;;;;;;4967522;28;20230;-71
2022/09/21 08:33:57;;;;;;;4.55;1.83;;;11.80;99.90;;;;;;4968268;28;20751;-71
2022/09/21 08:36:24;;;;;;;2.08;1.98;;;11.80;99.90;;;;;;4978582;28;20219;-71
2022/09/21 08:38:51;;;;;;;2.47;2.38;;;11.90;99.90;;;;;;4973337;28;20638;-70
2022/09/21 08:41:20;;;;;;;2.45;2.38;;;12.10;99.90;;;;;;4994450;23;20325;-69
2022/09/21 08:43:51;;;;;;;2.92;2.10;;;12.20;99.90;;;;;;4984600;28;20235;-69
2022/09/21 08:46:22;;;;;;;3.70;2.17;;;12.20;99.90;;;;;;4987240;28;20599;-68
2022/09/21 08:48:55;;;;;;;1.45;1.45;;;12.30;99.90;;;;;;4994539;28;20599;-69
2022/09/21 08:51:26;;;;;;;2.42;2.33;;;12.40;99.90;;;;;;4987018;28;20229;-69
2022/09/21 08:53:56;;;;;;;1.77;1.67;;;12.60;99.90;;;;;;4986300;28;20250;-69
2022/09/21 08:56:25;;;;;;;0.90;0.90;;;12.80;99.90;;;;;;4981496;28;20866;-69
2022/09/21 08:58:52;;;;;;;1.30;1.30;;;12.90;99.90;;;;;;4984222;28;20222;-69
2022/09/21 09:01:33;;;;;;;1.37;1.37;;;12.90;99.90;;;;;;4991712;28;21120;-68
2022/09/21 09:04:45;;;;;;;1.03;1.03;;;13.00;99.90;;;;;;4976392;28;21047;-69
2022/09/21 09:07:25;;;;;;;0.93;0.93;;;13.20;99.90;;;;;;4913568;29;20987;-68
2022/09/21 09:10:06;;;;;;;1.03;0.93;;;13.30;99.90;;;;;;4976680;28;20465;-69
2022/09/21 09:12:52;;;;;;;1.33;1.33;;;13.40;99.90;;;;;;4988282;28;20461;-68
2022/09/21 09:15:37;;;;;;;0.90;0.90;;;13.40;99.90;;;;;;4975319;28;20453;-69
2022/09/21 09:18:11;;;;;;;0.47;0.47;;;13.30;99.90;;;;;;4991035;28;20568;-69
2022/09/21 09:20:41;;;;;;;1.33;1.33;;;13.30;99.90;;;;;;4989425;28;20491;-69
2022/09/21 09:23:14;;;;;;;0.50;0.50;;;13.40;99.90;;;;;;4990525;28;20471;-68
2022/09/21 09:25:43;;;;;;;0.57;0.57;;;13.40;99.90;;;;;;4991484;28;20462;-69
2022/09/21 09:28:32;;;;;;;1.53;0.80;;;13.30;99.90;;;;;;4989628;28;21217;-68
2022/09/21 09:31:05;;;;;;;0.40;0.40;;;13.30;99.90;;;;;;4990807;28;20489;-68
2022/09/21 09:33:46;;;;;;;0.93;0.80;;;13.40;99.90;;;;;;4990024;28;20477;-68
2022/09/21 09:36:13;;;;;;;1.17;1.00;;;13.40;99.90;;;;;;4991090;28;20469;-67
2022/09/21 09:38:45;;;;;;;0.53;0.40;;;13.50;99.90;;;;;;4990035;28;20535;-67
2022/09/21 09:41:33;;;;;;;2.63;0.50;;;13.60;99.90;;;;;;4990876;28;21178;-67
2022/09/21 09:44:15;;;;;;;0.30;0.30;;;13.70;99.90;;;;;;4987937;28;20489;-68
2022/09/21 09:46:55;;;;;;;0.40;0.37;;;13.70;99.90;;;;;;4986742;28;20463;-68
2022/09/21 09:49:33;;;;;;;0.40;0.40;;;13.70;99.90;;;;;;4985135;28;20485;-68
2022/09/21 09:52:00;;;;;;;0.30;0.30;;;13.80;99.90;;;;;;4981229;28;20496;-68
2022/09/21 09:54:29;;;;;;;0.33;0.33;;;13.90;99.90;;;;;;4987739;28;20465;-68
2022/09/21 09:56:56;;;;;;;1.30;0.30;;;14.00;99.90;;;;;;4986650;28;20474;-68
2022/09/21 09:59:30;;;;;;;2.90;2.77;;;14.00;99.90;;;;;;4989574;28;20469;-68
2022/09/21 10:02:02;;;;;;;0.37;0.37;;;14.20;99.90;;;;;;4979427;28;20498;-68
2022/09/21 10:04:30;;;;;;;0.23;0.23;;;14.40;99.90;;;;;;4988628;28;20485;-68
2022/09/21 10:06:57;;;;;;;0.20;0.20;;;14.40;99.90;;;;;;4991523;28;20466;-69
2022/09/21 10:09:26;;;;;;;0.43;0.30;;;14.50;99.90;;;;;;4990556;28;20484;-68
2022/09/21 10:11:55;;;;;;;0.40;0.40;;;14.60;99.90;;;;;;4990271;28;20519;-69
2022/09/21 10:14:25;;;;;;;0.20;0.20;;;14.60;99.90;;;;;;4991472;28;20481;-69
2022/09/21 10:16:53;;;;;;;1.63;1.53;;;14.60;99.90;;;;;;4990134;28;20465;-69
2022/09/21 10:19:23;;;;;;;0.40;0.40;;;14.50;99.90;;;;;;4988934;28;20474;-69
2022/09/21 10:21:56;;;;;;;0.57;0.30;;;14.60;99.90;;;;;;4989423;28;20489;-68
2022/09/21 10:24:24;;;;;;;0.47;0.47;;;14.70;99.90;;;;;;4990428;28;20545;-69
2022/09/21 10:26:55;;;;;;;0.57;0.40;;;14.80;99.90;;;;;;4988734;28;20489;-69
2022/09/21 10:29:38;;;;;;;0.33;0.33;;;14.70;99.90;;;;;;4983845;28;20475;-69
2022/09/21 10:32:21;;;;;;;0.40;0.40;;;14.70;99.90;;;;;;4983239;28;20479;-69
2022/09/21 10:35:16;;;;;;;0.30;0.30;;;14.80;99.90;;;;;;4991330;28;20470;-68
2022/09/21 10:37:47;;;;;;;0.20;0.20;;;14.90;99.90;;;;;;4987942;28;20578;-69
2022/09/21 10:40:25;;;;;;;0.60;0.60;;;14.90;99.90;;;;;;4988962;28;20483;-69
2022/09/21 10:42:54;;;;;;;0.20;0.20;;;15.00;99.90;;;;;;4996363;28;20552;-69
2022/09/21 10:45:24;;;;;;;0.20;0.20;;;15.10;99.90;;;;;;5007085;28;20640;-69
2022/09/21 10:47:52;;;;;;;0.63;0.43;;;15.10;99.90;;;;;;5013013;28;20480;-69
2022/09/21 10:50:24;;;;;;;0.67;0.67;;;15.20;99.90;;;;;;5006546;28;20490;-69
2022/09/21 10:52:58;;;;;;;0.97;0.97;;;15.30;99.90;;;;;;4997288;28;20969;-69
2022/09/21 10:55:26;;;;;;;0.67;0.67;;;15.20;99.90;;;;;;4986780;28;20986;-69
2022/09/21 10:57:54;;;;;;;0.37;0.37;;;15.00;99.90;;;;;;4994559;28;20478;-68
2022/09/21 11:00:37;;;;;;;0.50;0.50;;;14.80;99.90;;;;;;4994680;28;20489;-68
2022/09/21 11:03:38;;;;;;;0.20;0.20;;;14.80;99.90;;;;;;4991659;28;21005;-69
2022/09/21 11:06:09;;;;;;;0.27;0.27;;;14.90;99.90;;;;;;4991204;28;20462;-69
2022/09/21 11:08:42;;;;;;;0.30;0.30;;;15.00;99.90;;;;;;4991890;28;20477;-68
2022/09/21 11:11:29;;;;;;;0.33;0.33;;;15.10;99.90;;;;;;4994779;28;20501;-69
2022/09/21 11:14:04;;;;;;;0.27;0.27;;;15.20;99.90;;;;;;4991680;28;20469;-68
2022/09/21 11:16:34;;;;;;;0.30;0.30;;;15.30;99.90;;;;;;4978608;28;20836;-68
2022/09/21 11:19:09;;;;;;;1.40;0.40;;;15.40;99.90;;;;;;4978914;28;20478;-69
2022/09/21 11:21:42;;;;;;;0.20;0.20;;;15.40;99.90;;;;;;4988517;28;21006;-68
2022/09/21 11:24:20;;;;;;;0.50;0.50;;;15.40;99.90;;;;;;4987083;28;20485;-68
2022/09/21 11:26:51;;;;;;;0.30;0.30;;;15.50;99.90;;;;;;4989270;28;20476;-68
2022/09/21 11:29:24;;;;;;;0.20;0.20;;;15.60;99.90;;;;;;4994289;28;20501;-68
2022/09/21 11:32:08;;;;;;;0.30;0.30;;;15.60;99.90;;;;;;4990674;28;20474;-68
2022/09/21 11:35:14;;;;;;;0.20;0.20;;;15.60;99.90;;;;;;4977446;28;20467;-68
2022/09/21 11:37:50;;;;;;;0.20;0.20;;;15.60;99.90;;;;;;4965787;28;20476;-68
2022/09/21 11:40:31;;;;;;;0.20;0.20;;;15.60;99.90;;;;;;4993942;28;20505;-68
2022/09/21 11:43:08;;;;;;;0.33;0.33;;;15.60;99.90;;;;;;4986430;28;20466;-68
2022/09/21 11:45:51;;;;;;;0.20;0.20;;;15.60;99.90;;;;;;4976027;28;21055;-69
2022/09/21 11:48:28;;;;;;;0.30;0.30;;;15.60;99.90;;;;;;4973593;28;20468;-69
2022/09/21 11:51:04;;;;;;;0.30;0.27;;;15.70;99.90;;;;;;4973477;28;20488;-68
2022/09/21 11:53:56;;;;;;;1.03;0.50;;;15.80;99.90;;;;;;4990005;28;20561;-69
2022/09/21 11:56:35;;;;;;;0.20;0.20;;;15.90;99.90;;;;;;4991719;28;20498;-69
2022/09/21 11:59:17;;;;;;;0.30;0.30;;;15.90;99.90;;;;;;4973452;28;20478;-69
2022/09/21 12:01:56;;;;;;;0.30;0.30;;;15.90;99.90;;;;;;4975713;28;20480;-69
2022/09/21 12:04:40;;;;;;;0.33;0.33;;;15.90;99.90;;;;;;4980150;28;20540;-70
2022/09/21 12:07:23;;;;;;;5.70;0.63;;;15.90;99.90;;;;;;4988112;28;20561;-68
2022/09/21 12:10:04;;;;;;;0.20;0.20;;;15.80;99.90;;;;;;5002111;28;20465;-68
2022/09/21 12:12:40;;;;;;;0.50;0.50;;;15.70;99.90;;;;;;4999638;28;20955;-68
2022/09/21 12:15:11;;;;;;;0.23;0.23;;;15.80;99.90;;;;;;4975947;28;20954;-68
2022/09/21 12:17:45;;;;;;;1.33;0.40;;;15.90;99.90;;;;;;4975675;28;20460;-68
2022/09/21 12:20:18;;;;;;;1.80;1.70;;;15.90;99.90;;;;;;4982436;28;20490;-68
2022/09/21 12:22:47;;;;;;;5.73;1.03;;;16.00;99.90;;;;;;4991699;28;20468;-68
2022/09/21 12:25:17;;;;;;;0.30;0.30;;;16.00;99.90;;;;;;4989771;28;20492;-69
2022/09/21 12:27:49;;;;;;;0.20;0.20;;;16.00;99.90;;;;;;4983903;28;20990;-68
2022/09/21 12:30:19;;;;;;;0.40;0.40;;;16.10;99.90;;;;;;4990782;28;20490;-69
2022/09/21 12:32:52;;;;;;;0.40;0.40;;;16.10;99.90;;;;;;4991441;28;20833;-68
2022/09/21 12:35:26;;;;;;;0.30;0.30;;;16.20;99.90;;;;;;4992523;28;20461;-68
2022/09/21 12:38:00;;;;;;;0.40;0.30;;;16.30;99.90;;;;;;4990300;28;20512;-69
2022/09/21 12:40:36;;;;;;;0.20;0.20;;;16.30;99.90;;;;;;4991108;28;20524;-68
2022/09/21 12:43:21;;;;;;;0.20;0.20;;;16.40;99.90;;;;;;4981664;28;21278;-68
2022/09/21 12:45:53;;;;;;;0.20;0.20;;;16.40;99.90;;;;;;4992104;28;20859;-68
2022/09/21 12:48:29;;;;;;;0.30;0.30;;;16.50;99.90;;;;;;4991800;28;20473;-68
2022/09/21 12:51:02;;;;;;;0.20;0.20;;;16.50;99.90;;;;;;4990831;28;20525;-68
2022/09/21 12:53:32;;;;;;;0.20;0.20;;;16.50;99.90;;;;;;4982225;28;20484;-68
2022/09/21 12:56:06;;;;;;;0.20;0.20;;;16.50;99.90;;;;;;4972155;28;20470;-68
2022/09/21 12:59:04;;;;;;;0.20;0.20;;;16.50;99.90;;;;;;4971214;28;20508;-65
2022/09/21 13:01:35;;;;;;;0.10;0.10;;;16.50;99.90;;;;;;4987634;28;20483;-65
2022/09/21 13:04:16;;;;;;;0.30;0.30;;;16.60;99.90;;;;;;4983425;28;20466;-65
2022/09/21 13:07:02;;;;;;;0.20;0.20;;;16.60;99.90;;;;;;4991120;28;20468;-65
2022/09/21 13:09:30;;;;;;;0.30;0.30;;;16.60;99.90;;;;;;4974413;28;20972;-65
2022/09/21 13:12:03;;;;;;;0.20;0.20;;;16.60;99.90;;;;;;4988080;28;20485;-65
2022/09/21 13:14:35;;;;;;;0.20;0.20;;;16.60;99.90;;;;;;4981219;28;20460;-65
2022/09/21 13:17:04;;;;;;;0.20;0.20;;;16.60;99.90;;;;;;4984328;28;20534;-65
2022/09/21 13:19:33;;;;;;;0.20;0.20;;;16.60;99.90;;;;;;4978028;28;20474;-65
2022/09/21 13:22:13;;;;;;;0.20;0.20;;;16.60;99.90;;;;;;4988120;28;20491;-65
2022/09/21 13:24:42;;;;;;;0.30;0.30;;;16.60;99.90;;;;;;4989836;28;20484;-65
2022/09/21 13:27:09;;;;;;;0.30;0.30;;;16.60;99.90;;;;;;4975321;28;20465;-65
2022/09/21 13:29:38;;;;;;;0.30;0.30;;;16.60;99.90;;;;;;4987366;28;20470;-65
2022/09/21 13:32:22;;;;;;;0.20;0.20;;;16.60;99.90;;;;;;4990171;28;20486;-65
2022/09/21 13:34:49;;;;;;;0.20;0.20;;;16.70;99.90;;;;;;4984687;28;20538;-65
2022/09/21 13:37:34;;;;;;;0.20;0.20;;;16.70;99.90;;;;;;4978950;28;20474;-65
2022/09/21 13:40:38;;;;;;;0.30;0.30;;;16.70;99.90;;;;;;4989381;28;20470;-65
2022/09/21 13:43:23;;;;;;;0.30;0.30;;;16.70;99.90;;;;;;4980809;28;20865;-65
2022/09/21 13:45:55;;;;;;;0.20;0.20;;;16.70;99.90;;;;;;4984184;28;20483;-65
2022/09/21 13:48:28;;;;;;;0.33;0.33;;;16.60;99.90;;;;;;4985970;28;20472;-65
2022/09/21 13:50:58;;;;;;;0.20;0.20;;;16.60;99.90;;;;;;4974722;28;20855;-65
2022/09/21 13:53:29;;;;;;;0.20;0.20;;;16.60;99.90;;;;;;4985567;28;20837;-68
2022/09/21 13:56:01;;;;;;;0.27;0.27;;;16.60;99.90;;;;;;4970670;28;20467;-68
2022/09/21 13:58:34;;;;;;;0.20;0.20;;;16.70;99.90;;;;;;4980634;28;20474;-68
2022/09/21 14:01:05;;;;;;;0.10;0.10;;;16.70;99.90;;;;;;4989660;28;20483;-68
2022/09/21 14:03:36;;;;;;;0.20;0.20;;;16.80;99.90;;;;;;4988413;28;20562;-68
2022/09/21 14:06:07;;;;;;;0.30;0.30;;;16.90;99.90;;;;;;4976562;28;20492;-67
2022/09/21 14:08:37;;;;;;;0.53;0.27;;;16.80;99.90;;;;;;4990071;28;20469;-68
2022/09/21 14:11:08;;;;;;;0.27;0.27;;;16.90;99.90;;;;;;4989685;28;20608;-67
2022/09/21 14:13:37;;;;;;;0.40;0.40;;;16.90;99.90;;;;;;4988332;28;20844;-67
2022/09/21 14:16:43;;;;;;;0.20;0.20;;;16.90;99.90;;;;;;4981971;28;20854;-68
2022/09/21 14:19:43;;;;;;;0.33;0.33;;;16.90;99.90;;;;;;4978764;28;20513;-68
2022/09/21 14:22:36;;;;;;;0.40;0.40;;;17.00;99.90;;;;;;4981118;28;20572;-68
2022/09/21 14:25:47;;;;;;;0.30;0.30;;;16.90;99.90;;;;;;4980043;28;20506;-67
2022/09/21 14:28:15;;;;;;;0.20;0.20;;;16.90;99.90;;;;;;4978047;28;20470;-68
2022/09/21 14:30:50;;;;;;;0.20;0.20;;;16.90;99.90;;;;;;4979781;28;20866;-68
2022/09/21 14:33:27;;;;;;;0.20;0.20;;;16.80;99.90;;;;;;4975845;28;20473;-68
2022/09/21 14:35:56;;;;;;;0.30;0.20;;;16.80;99.90;;;;;;4985303;28;20463;-67
2022/09/21 14:38:27;;;;;;;0.20;0.20;;;16.90;99.90;;;;;;4989927;28;20810;-69
2022/09/21 14:40:59;;;;;;;0.30;0.30;;;16.80;99.90;;;;;;4988981;28;20607;-68
2022/09/21 14:43:32;;;;;;;0.40;0.40;;;16.90;99.90;;;;;;4986367;28;20888;-68
2022/09/21 14:46:24;;;;;;;0.30;0.30;;;16.90;99.90;;;;;;4983151;28;20481;-68
2022/09/21 14:49:06;;;;;;;0.30;0.30;;;16.90;99.90;;;;;;4979800;28;20461;-68
2022/09/21 14:51:41;;;;;;;0.20;0.20;;;16.80;99.90;;;;;;4987606;28;20507;-69
2022/09/21 14:54:34;;;;;;;0.30;0.30;;;16.80;99.90;;;;;;4986128;28;20491;-68
2022/09/21 14:57:33;;;;;;;0.20;0.20;;;16.80;99.90;;;;;;4983242;28;20452;-68
2022/09/21 15:00:19;;;;;;;0.30;0.30;;;16.80;99.90;;;;;;4979514;28;20463;-68
2022/09/21 15:02:49;;;;;;;1.27;0.30;;;16.80;99.90;;;;;;4980891;28;20885;-68
2022/09/21 15:05:27;;;;;;;0.40;0.20;;;16.80;99.90;;;;;;4980190;28;20506;-68
2022/09/21 15:11:09;;;;;;;0.20;0.20;;;16.80;99.90;;;;;;4988183;28;20480;-68
2022/09/21 15:13:57;;;;;;;0.30;0.30;;;16.80;99.90;;;;;;4983988;28;20467;-68
2022/09/21 15:19:03;;;;;;;0.20;0.20;;;16.80;99.90;;;;;;4947802;28;20522;-70
2022/09/21 15:21:31;;;;;;;1.80;0.30;;;16.80;99.90;;;;;;4953487;28;20462;-69
2022/09/21 15:23:59;;;;;;;0.20;0.20;;;16.80;99.90;;;;;;4946121;28;20475;-69
2022/09/21 15:26:29;;;;;;;0.70;0.30;;;16.80;99.90;;;;;;4943298;28;20519;-71
2022/09/21 15:28:58;;;;;;;0.30;0.30;;;16.80;99.90;;;;;;4944764;29;20497;-69
2022/09/21 15:31:31;;;;;;;0.20;0.20;;;16.80;99.90;;;;;;4936868;29;20468;-69
2022/09/21 15:33:57;;;;;;;0.40;0.40;;;16.70;99.90;;;;;;4944665;28;20470;-74
2022/09/21 15:36:27;;;;;;;0.20;0.20;;;16.60;99.90;;;;;;4943057;28;20830;-70
2022/09/21 15:38:58;;;;;;;0.43;0.40;;;16.70;99.90;;;;;;4946834;29;20456;-70
2022/09/21 15:41:41;;;;;;;0.30;0.30;;;16.60;99.90;;;;;;4946269;29;20488;-70
2022/09/21 15:44:14;;;;;;;0.40;0.40;;;16.60;99.90;;;;;;4943702;28;20821;-71
2022/09/21 15:46:43;;;;;;;0.90;0.40;;;16.60;99.90;;;;;;4946416;28;20491;-69
2022/09/21 15:49:16;;;;;;;0.67;0.67;;;16.60;99.90;;;;;;4945295;29;20473;-70
2022/09/21 15:51:45;;;;;;;0.50;0.50;;;16.50;99.90;;;;;;4951300;29;20471;-67
2022/09/21 15:54:28;;;;;;;0.30;0.30;;;16.50;99.90;;;;;;4950744;28;20471;-70
2022/09/21 15:56:57;;;;;;;0.27;0.27;;;16.50;99.90;;;;;;4941546;29;20483;-70
2022/09/21 15:59:23;;;;;;;0.20;0.20;;;16.50;99.90;;;;;;4945413;28;20467;-70
2022/09/21 16:01:53;;;;;;;0.30;0.30;;;16.50;99.90;;;;;;4942712;28;20485;-70
2022/09/21 16:04:22;;;;;;;0.87;0.40;;;16.40;99.90;;;;;;4944755;28;20481;-70
2022/09/21 16:06:59;;;;;;;0.30;0.30;;;16.40;99.90;;;;;;4947062;28;20497;-71
2022/09/21 16:09:39;;;;;;;0.50;0.47;;;16.40;99.90;;;;;;4942598;29;20501;-69
2022/09/21 16:12:41;;;;;;;0.23;0.23;;;16.30;99.90;;;;;;4934019;29;20470;-68
2022/09/21 16:15:15;;;;;;;1.17;0.30;;;16.30;99.90;;;;;;4889519;29;20467;-68
2022/09/21 16:18:05;;;;;;;0.50;0.50;;;16.30;99.90;;;;;;4884673;29;20509;-68
2022/09/21 16:20:46;;;;;;;0.50;0.50;;;16.20;99.90;;;;;;4925787;28;20462;-68
2022/09/21 16:23:17;;;;;;;0.23;0.23;;;16.10;99.90;;;;;;4951023;28;20477;-68
2022/09/21 16:25:47;;;;;;;0.20;0.20;;;16.00;99.90;;;;;;4950887;29;20515;-68
2022/09/21 16:28:44;;;;;;;0.37;0.37;;;15.90;99.90;;;;;;4953074;28;20499;-68
2022/09/21 16:31:30;;;;;;;0.20;0.20;;;15.80;99.90;;;;;;4912646;29;20470;-71
2022/09/21 16:34:03;;;;;;;0.20;0.20;;;15.70;99.90;;;;;;4947033;28;20502;-68
2022/09/21 16:36:44;;;;;;;0.20;0.20;;;15.60;99.90;;;;;;4943228;29;20454;-68
2022/09/21 16:39:16;;;;;;;0.30;0.30;;;15.60;99.90;;;;;;4950666;29;20476;-68
2022/09/21 16:41:50;;;;;;;0.27;0.27;;;15.50;99.90;;;;;;4952683;28;20475;-70
2022/09/21 16:44:21;;;;;;;0.30;0.30;;;15.40;99.90;;;;;;4951701;28;20506;-69
2022/09/21 16:46:51;;;;;;;5.90;4.20;;;15.40;99.90;;;;;;4941577;29;20505;-70
2022/09/21 16:49:20;;;;;;;1.00;1.00;;;15.30;99.90;;;;;;4942357;28;20471;-70
2022/09/21 16:51:48;;;;;;;0.60;0.60;;;15.20;99.90;;;;;;4939525;29;20470;-69
2022/09/21 16:54:17;;;;;;;1.27;0.83;;;15.10;99.90;;;;;;4944384;28;20480;-69
2022/09/21 16:56:44;;;;;;;1.03;0.50;;;14.90;99.90;;;;;;4941651;28;21536;-69
2022/09/21 16:59:18;;;;;;;1.23;1.10;;;14.80;99.90;;;;;;4947145;29;20471;-68
2022/09/21 17:01:49;;;;;;;0.60;0.60;;;14.70;99.90;;;;;;4952676;29;20580;-68
2022/09/21 17:04:16;;;;;;;0.50;0.50;;;14.50;99.90;;;;;;4951402;28;20471;-68
2022/09/21 17:06:43;;;;;;;0.60;0.60;;;14.40;99.90;;;;;;4944851;29;20511;-68
2022/09/21 17:09:22;;;;;;;0.50;0.50;;;14.30;99.90;;;;;;4953075;28;20479;-70
2022/09/21 17:11:50;;;;;;;1.23;1.23;;;14.20;99.90;;;;;;4952108;28;20471;-68
2022/09/21 17:14:19;;;;;;;0.60;0.50;;;14.10;99.90;;;;;;4951144;28;20938;-68
2022/09/21 17:16:49;;;;;;;0.40;0.40;;;14.00;99.90;;;;;;4949063;29;20558;-68
2022/09/21 17:19:17;;;;;;;0.57;0.57;;;13.80;99.90;;;;;;4951713;29;20972;-68
2022/09/21 17:21:45;;;;;;;0.67;0.67;;;13.70;99.90;;;;;;4952319;28;20474;-68
2022/09/21 17:24:12;;;;;;;0.47;0.47;;;13.70;99.90;;;;;;4943450;28;20534;-69
2022/09/21 17:26:39;;;;;;;1.70;1.70;;;13.60;99.90;;;;;;4941042;29;20547;-68